EIN1AW KBOS-EIDW
Flight info
| Callsign | EIN1AW |
|---|---|
| Flight time | N/A |
| Altitude | 37000 |
| Route | CELTK7 CELTK FRILL TUSKY TUDEP/M081F390 52N050W 54N040W 55N030W 55N020W DOGAL BEXET/N0468F390 DEVOL OLAPO OLAPO4L |
| Aircraft | A339/H-SADE1E2E3GHIJ3J5M1P2RWXY/LB2D1 |
Departure
| Time | 2026-05-07 19:50 |
|---|---|
| Airport | Boston Logan International Airport (KBOS) |
Arrival
| Time | N/A |
|---|---|
| Airport | Dublin Airport (EIDW) |
| Time | Latitude | Longitude | Altitude | Speed | Heading |
|---|---|---|---|---|---|
| 2026-05-07 19:21 | 42.37072 | -71.01865 | 31 ft | 0 kts | 211° |
| 2026-05-07 19:33 | 42.37085 | -71.01860 | 30 ft | 2 kts | 294° |
| 2026-05-07 19:33 | 42.37075 | -71.01847 | 31 ft | 2 kts | 241° |
| 2026-05-07 19:34 | 42.37084 | -71.01829 | 29 ft | 2 kts | 218° |
| 2026-05-07 19:34 | 42.37103 | -71.01819 | 29 ft | 3 kts | 191° |
| 2026-05-07 19:34 | 42.37115 | -71.01817 | 30 ft | 1 kts | 205° |
| 2026-05-07 19:34 | 42.37119 | -71.01815 | 29 ft | 0 kts | 214° |
| 2026-05-07 19:35 | 42.37119 | -71.01816 | 29 ft | 0 kts | 214° |
| 2026-05-07 19:35 | 42.37124 | -71.01814 | 29 ft | 0 kts | 235° |
| 2026-05-07 19:35 | 42.37124 | -71.01816 | 29 ft | 0 kts | 236° |
| 2026-05-07 19:36 | 42.37127 | -71.01805 | 28 ft | 1 kts | 213° |
| 2026-05-07 19:36 | 42.37132 | -71.01798 | 30 ft | 1 kts | 188° |
| 2026-05-07 19:36 | 42.37138 | -71.01795 | 30 ft | 1 kts | 169° |
| 2026-05-07 19:36 | 42.37142 | -71.01794 | 30 ft | 1 kts | 156° |
| 2026-05-07 19:37 | 42.37146 | -71.01795 | 28 ft | 1 kts | 143° |
| 2026-05-07 19:37 | 42.37149 | -71.01797 | 28 ft | 0 kts | 132° |
| 2026-05-07 19:40 | 42.37149 | -71.01796 | 31 ft | 1 kts | 132° |
| 2026-05-07 19:41 | 42.37136 | -71.01774 | 31 ft | 6 kts | 127° |
| 2026-05-07 19:41 | 42.37102 | -71.01705 | 31 ft | 11 kts | 123° |
| 2026-05-07 19:41 | 42.37045 | -71.01619 | 31 ft | 14 kts | 135° |
| 2026-05-07 19:41 | 42.36972 | -71.01521 | 31 ft | 16 kts | 135° |
| 2026-05-07 19:42 | 42.36890 | -71.01406 | 31 ft | 12 kts | 136° |
| 2026-05-07 19:42 | 42.36881 | -71.01395 | 31 ft | 3 kts | 135° |
| 2026-05-07 19:42 | 42.36851 | -71.01354 | 31 ft | 9 kts | 135° |
| 2026-05-07 19:42 | 42.36790 | -71.01272 | 31 ft | 15 kts | 140° |
| 2026-05-07 19:43 | 42.36682 | -71.01256 | 30 ft | 15 kts | 192° |
| 2026-05-07 19:43 | 42.36583 | -71.01295 | 31 ft | 15 kts | 201° |
| 2026-05-07 19:43 | 42.36489 | -71.01354 | 31 ft | 15 kts | 205° |
| 2026-05-07 19:43 | 42.36405 | -71.01398 | 31 ft | 10 kts | 193° |
| 2026-05-07 19:44 | 42.36360 | -71.01356 | 31 ft | 8 kts | 131° |
| 2026-05-07 19:44 | 42.36326 | -71.01292 | 31 ft | 9 kts | 123° |
| 2026-05-07 19:44 | 42.36288 | -71.01214 | 31 ft | 10 kts | 123° |
| 2026-05-07 19:44 | 42.36265 | -71.01159 | 31 ft | 0 kts | 117° |
| 2026-05-07 19:45 | 42.36262 | -71.01151 | 31 ft | 2 kts | 117° |
| 2026-05-07 19:45 | 42.36247 | -71.01108 | 31 ft | 8 kts | 115° |
| 2026-05-07 19:45 | 42.36222 | -71.01032 | 31 ft | 10 kts | 114° |
| 2026-05-07 19:45 | 42.36193 | -71.00943 | 31 ft | 11 kts | 114° |
| 2026-05-07 19:46 | 42.36161 | -71.00846 | 31 ft | 12 kts | 115° |
| 2026-05-07 19:46 | 42.36126 | -71.00739 | 32 ft | 12 kts | 112° |
| 2026-05-07 19:46 | 42.36097 | -71.00625 | 32 ft | 14 kts | 109° |
| 2026-05-07 19:46 | 42.36064 | -71.00495 | 31 ft | 15 kts | 108° |
| 2026-05-07 19:47 | 42.36029 | -71.00353 | 31 ft | 17 kts | 108° |
| 2026-05-07 19:47 | 42.36006 | -71.00262 | 31 ft | 0 kts | 109° |
| 2026-05-07 19:47 | 42.35993 | -71.00208 | 31 ft | 14 kts | 108° |
| 2026-05-07 19:47 | 42.35923 | -71.00040 | 31 ft | 23 kts | 132° |
| 2026-05-07 19:48 | 42.35807 | -70.99882 | 31 ft | 24 kts | 135° |
| 2026-05-07 19:48 | 42.35688 | -70.99724 | 31 ft | 24 kts | 134° |
| 2026-05-07 19:48 | 42.35579 | -70.99577 | 31 ft | 20 kts | 135° |
| 2026-05-07 19:48 | 42.35494 | -70.99431 | 31 ft | 19 kts | 98° |
| 2026-05-07 19:49 | 42.35524 | -70.99310 | 30 ft | 8 kts | 31° |
| 2026-05-07 19:49 | 42.35556 | -70.99309 | 31 ft | 6 kts | 349° |
| 2026-05-07 19:49 | 42.35633 | -70.99393 | 29 ft | 36 kts | 313° |
| 2026-05-07 19:49 | 42.35976 | -70.99854 | 31 ft | 104 kts | 315° |
| 2026-05-07 19:50 | 42.36661 | -71.00775 | 36 ft | 168 kts | 314° |
| 2026-05-07 19:50 | 42.37539 | -71.01950 | 608 ft | 178 kts | 312° |
| 2026-05-07 19:50 | 42.38416 | -71.03169 | 1478 ft | 182 kts | 311° |
| 2026-05-07 19:50 | 42.39268 | -71.04436 | 2375 ft | 182 kts | 309° |
| 2026-05-07 19:51 | 42.40028 | -71.05745 | 3282 ft | 175 kts | 301° |
| 2026-05-07 19:51 | 42.40477 | -71.07228 | 4147 ft | 170 kts | 279° |
| 2026-05-07 19:51 | 42.40317 | -71.08784 | 4942 ft | 172 kts | 251° |
| 2026-05-07 19:51 | 42.39677 | -71.10304 | 5206 ft | 201 kts | 240° |
| 2026-05-07 19:52 | 42.38832 | -71.11995 | 5351 ft | 230 kts | 240° |
| 2026-05-07 19:52 | 42.38041 | -71.13971 | 5597 ft | 247 kts | 248° |
| 2026-05-07 19:52 | 42.37270 | -71.16136 | 5862 ft | 266 kts | 244° |
| 2026-05-07 19:52 | 42.36154 | -71.18253 | 6146 ft | 288 kts | 227° |
| 2026-05-07 19:53 | 42.34627 | -71.20106 | 6568 ft | 300 kts | 222° |
| 2026-05-07 19:53 | 42.32720 | -71.21329 | 7101 ft | 314 kts | 192° |
| 2026-05-07 19:53 | 42.30527 | -71.20841 | 7621 ft | 334 kts | 157° |
| 2026-05-07 19:53 | 42.28719 | -71.18760 | 8107 ft | 348 kts | 135° |
| 2026-05-07 19:54 | 42.26959 | -71.16554 | 8937 ft | 338 kts | 146° |
| 2026-05-07 19:54 | 42.25143 | -71.14695 | 9948 ft | 328 kts | 150° |
| 2026-05-07 19:54 | 42.23327 | -71.12792 | 10630 ft | 331 kts | 146° |
| 2026-05-07 19:54 | 42.21598 | -71.10740 | 11308 ft | 332 kts | 147° |
| 2026-05-07 19:55 | 42.19880 | -71.08625 | 11986 ft | 336 kts | 143° |
| 2026-05-07 19:55 | 42.18458 | -71.06081 | 12738 ft | 348 kts | 123° |
| 2026-05-07 19:55 | 42.17801 | -71.02921 | 13620 ft | 355 kts | 101° |
| 2026-05-07 19:55 | 42.17627 | -70.99521 | 13880 ft | 373 kts | 95° |
| 2026-05-07 19:56 | 42.17789 | -70.95936 | 14030 ft | 393 kts | 85° |
| 2026-05-07 19:56 | 42.18221 | -70.92210 | 14066 ft | 413 kts | 83° |
| 2026-05-07 19:56 | 42.18573 | -70.88292 | 14266 ft | 425 kts | 86° |
| 2026-05-07 19:56 | 42.18888 | -70.84318 | 14808 ft | 427 kts | 86° |
| 2026-05-07 19:57 | 42.19245 | -70.80320 | 15304 ft | 431 kts | 85° |
| 2026-05-07 19:57 | 42.19639 | -70.76353 | 15800 ft | 433 kts | 84° |
| 2026-05-07 19:57 | 42.20067 | -70.72305 | 16304 ft | 436 kts | 84° |
| 2026-05-07 19:57 | 42.20475 | -70.68536 | 16765 ft | 439 kts | 84° |
| 2026-05-07 19:58 | 42.20919 | -70.64458 | 17260 ft | 442 kts | 84° |
| 2026-05-07 19:58 | 42.21368 | -70.60324 | 17751 ft | 445 kts | 85° |
| 2026-05-07 19:58 | 42.21815 | -70.56182 | 18221 ft | 448 kts | 85° |
| 2026-05-07 19:58 | 42.22264 | -70.52002 | 18575 ft | 454 kts | 85° |
| 2026-05-07 19:59 | 42.22703 | -70.47895 | 18907 ft | 459 kts | 85° |
| 2026-05-07 19:59 | 42.23156 | -70.43648 | 19260 ft | 464 kts | 85° |
| 2026-05-07 19:59 | 42.23617 | -70.39309 | 19641 ft | 469 kts | 85° |
| 2026-05-07 19:59 | 42.24080 | -70.34932 | 20012 ft | 474 kts | 86° |
| 2026-05-07 20:00 | 42.24544 | -70.30525 | 20375 ft | 479 kts | 86° |
| 2026-05-07 20:00 | 42.25018 | -70.26010 | 20742 ft | 484 kts | 86° |
| 2026-05-07 20:00 | 42.25485 | -70.21496 | 21107 ft | 489 kts | 86° |
| 2026-05-07 20:00 | 42.25954 | -70.16926 | 21475 ft | 494 kts | 86° |
| 2026-05-07 20:01 | 42.26428 | -70.12308 | 21855 ft | 499 kts | 87° |
| 2026-05-07 20:01 | 42.26906 | -70.07664 | 22245 ft | 503 kts | 87° |
| 2026-05-07 20:01 | 42.27383 | -70.03045 | 22642 ft | 507 kts | 87° |
| 2026-05-07 20:01 | 42.27873 | -69.98305 | 23040 ft | 511 kts | 87° |
| 2026-05-07 20:02 | 42.28367 | -69.93534 | 23428 ft | 515 kts | 87° |
| 2026-05-07 20:02 | 42.28866 | -69.88719 | 23762 ft | 519 kts | 87° |
| 2026-05-07 20:02 | 42.29363 | -69.83926 | 24113 ft | 523 kts | 88° |
| 2026-05-07 20:02 | 42.29871 | -69.79040 | 24468 ft | 526 kts | 88° |
| 2026-05-07 20:03 | 42.30380 | -69.74154 | 24831 ft | 530 kts | 88° |
| 2026-05-07 20:03 | 42.30898 | -69.69194 | 25197 ft | 533 kts | 88° |
| 2026-05-07 20:03 | 42.31417 | -69.64232 | 25568 ft | 535 kts | 88° |
| 2026-05-07 20:03 | 42.31937 | -69.59260 | 25938 ft | 538 kts | 88° |
| 2026-05-07 20:04 | 42.32464 | -69.54244 | 26318 ft | 540 kts | 88° |
| 2026-05-07 20:04 | 42.32995 | -69.49190 | 26709 ft | 543 kts | 88° |
| 2026-05-07 20:04 | 42.33529 | -69.44130 | 27090 ft | 545 kts | 88° |
| 2026-05-07 20:04 | 42.34066 | -69.39058 | 27489 ft | 546 kts | 88° |
| 2026-05-07 20:05 | 42.34608 | -69.33950 | 27878 ft | 548 kts | 88° |
| 2026-05-07 20:05 | 42.35152 | -69.28840 | 28283 ft | 549 kts | 88° |
| 2026-05-07 20:05 | 42.35692 | -69.23794 | 28662 ft | 551 kts | 88° |
| 2026-05-07 20:05 | 42.36242 | -69.18661 | 29079 ft | 552 kts | 88° |
| 2026-05-07 20:06 | 42.36795 | -69.13525 | 29489 ft | 553 kts | 88° |
| 2026-05-07 20:06 | 42.37352 | -69.08372 | 29891 ft | 554 kts | 88° |
| 2026-05-07 20:06 | 42.37912 | -69.03211 | 30237 ft | 555 kts | 88° |
| 2026-05-07 20:06 | 42.38474 | -68.98042 | 30582 ft | 556 kts | 88° |
| 2026-05-07 20:07 | 42.39040 | -68.92852 | 30922 ft | 557 kts | 88° |
| 2026-05-07 20:07 | 42.39607 | -68.87667 | 31273 ft | 558 kts | 87° |
| 2026-05-07 20:07 | 42.40178 | -68.82465 | 31617 ft | 558 kts | 87° |
| 2026-05-07 20:07 | 42.40751 | -68.77268 | 31967 ft | 559 kts | 87° |
| 2026-05-07 20:08 | 42.41327 | -68.72055 | 32321 ft | 559 kts | 87° |
| 2026-05-07 20:08 | 42.41907 | -68.66837 | 32667 ft | 560 kts | 87° |
| 2026-05-07 20:08 | 42.42790 | -68.61649 | 32768 ft | 572 kts | 75° |
| 2026-05-07 20:08 | 42.43795 | -68.56427 | 32857 ft | 576 kts | 81° |
| 2026-05-07 20:09 | 42.46632 | -68.46213 | 33028 ft | 593 kts | 58° |
| 2026-05-07 20:09 | 42.48946 | -68.41588 | 33118 ft | 595 kts | 46° |
| 2026-05-07 20:10 | 42.54903 | -68.33865 | 33294 ft | 595 kts | 32° |
| 2026-05-07 20:10 | 42.61248 | -68.26451 | 33445 ft | 608 kts | 35° |
| 2026-05-07 20:11 | 42.67448 | -68.18585 | 33723 ft | 613 kts | 37° |
| 2026-05-07 20:11 | 42.70550 | -68.14542 | 33908 ft | 613 kts | 37° |
| 2026-05-07 20:11 | 42.73624 | -68.10517 | 34103 ft | 612 kts | 38° |
| 2026-05-07 20:11 | 42.76690 | -68.06497 | 34285 ft | 612 kts | 38° |
| 2026-05-07 20:12 | 42.79758 | -68.02467 | 34482 ft | 611 kts | 38° |
| 2026-05-07 20:12 | 42.82785 | -67.98489 | 34654 ft | 610 kts | 38° |
| 2026-05-07 20:12 | 42.85834 | -67.94481 | 34859 ft | 610 kts | 38° |
| 2026-05-07 20:12 | 42.88892 | -67.90458 | 35043 ft | 609 kts | 38° |
| 2026-05-07 20:13 | 42.91945 | -67.86437 | 35229 ft | 609 kts | 38° |
| 2026-05-07 20:13 | 42.94980 | -67.82435 | 35408 ft | 608 kts | 38° |
| 2026-05-07 20:13 | 42.98023 | -67.78417 | 35590 ft | 607 kts | 38° |
| 2026-05-07 20:13 | 43.01059 | -67.74401 | 35773 ft | 607 kts | 38° |
| 2026-05-07 20:14 | 43.04093 | -67.70383 | 35951 ft | 606 kts | 38° |
| 2026-05-07 20:14 | 43.07115 | -67.66375 | 36143 ft | 605 kts | 38° |
| 2026-05-07 20:14 | 43.10112 | -67.62394 | 36315 ft | 605 kts | 38° |
| 2026-05-07 20:14 | 43.13152 | -67.58351 | 36510 ft | 604 kts | 38° |
| 2026-05-07 20:15 | 43.16124 | -67.54391 | 36686 ft | 603 kts | 38° |
| 2026-05-07 20:15 | 43.22130 | -67.46372 | 36769 ft | 601 kts | 39° |
| 2026-05-07 20:16 | 43.28116 | -67.38357 | 36763 ft | 601 kts | 39° |
| 2026-05-07 20:16 | 43.34075 | -67.30356 | 36759 ft | 601 kts | 39° |
| 2026-05-07 20:17 | 43.40066 | -67.22288 | 36755 ft | 601 kts | 39° |
| 2026-05-07 20:17 | 43.46039 | -67.14220 | 36758 ft | 601 kts | 39° |
| 2026-05-07 20:18 | 43.52003 | -67.06141 | 36752 ft | 601 kts | 39° |
| 2026-05-07 20:18 | 43.57915 | -66.98102 | 36752 ft | 602 kts | 40° |
| 2026-05-07 20:19 | 43.63724 | -66.89746 | 36748 ft | 603 kts | 41° |
| 2026-05-07 20:19 | 43.69515 | -66.81365 | 36747 ft | 602 kts | 41° |
| 2026-05-07 20:20 | 43.75335 | -66.73009 | 36745 ft | 601 kts | 41° |
| 2026-05-07 20:20 | 43.81108 | -66.64718 | 36746 ft | 601 kts | 41° |
| 2026-05-07 20:21 | 43.86912 | -66.56358 | 36744 ft | 600 kts | 41° |
| 2026-05-07 20:21 | 43.91715 | -66.49421 | 36743 ft | 600 kts | 41° |